sensor_id;sensor_type;location;lat;lon;timestamp;P1;durP1;ratioP1;P2;durP2;ratioP2
60354;SDS011;46198;51.464;-0.066;2023-04-19T00:01:38;29.47;;;14.03;;
60354;SDS011;46198;51.464;-0.066;2023-04-19T00:04:06;28.43;;;14.33;;
60354;SDS011;46198;51.464;-0.066;2023-04-19T00:06:36;26.47;;;14.23;;
60354;SDS011;46198;51.464;-0.066;2023-04-19T00:09:06;34.17;;;14.70;;
60354;SDS011;46198;51.464;-0.066;2023-04-19T00:11:34;32.10;;;15.73;;
60354;SDS011;46198;51.464;-0.066;2023-04-19T00:14:02;30.90;;;16.30;;
60354;SDS011;46198;51.464;-0.066;2023-04-19T00:16:30;29.77;;;15.03;;
60354;SDS011;46198;51.464;-0.066;2023-04-19T00:18:58;32.13;;;15.93;;
60354;SDS011;46198;51.464;-0.066;2023-04-19T00:21:27;28.10;;;15.63;;
60354;SDS011;46198;51.464;-0.066;2023-04-19T00:23:56;28.80;;;15.20;;
60354;SDS011;46198;51.464;-0.066;2023-04-19T00:26:24;31.07;;;15.57;;
60354;SDS011;46198;51.464;-0.066;2023-04-19T00:28:52;29.87;;;16.23;;
60354;SDS011;46198;51.464;-0.066;2023-04-19T00:31:20;28.90;;;15.83;;
60354;SDS011;46198;51.464;-0.066;2023-04-19T00:33:48;31.37;;;15.37;;
60354;SDS011;46198;51.464;-0.066;2023-04-19T00:36:17;41.83;;;16.23;;
60354;SDS011;46198;51.464;-0.066;2023-04-19T00:38:45;34.23;;;15.73;;
60354;SDS011;46198;51.464;-0.066;2023-04-19T00:41:15;28.27;;;15.77;;
60354;SDS011;46198;51.464;-0.066;2023-04-19T00:43:43;33.83;;;17.07;;
60354;SDS011;46198;51.464;-0.066;2023-04-19T00:46:11;32.37;;;15.63;;
60354;SDS011;46198;51.464;-0.066;2023-04-19T00:48:41;34.38;;;17.73;;
60354;SDS011;46198;51.464;-0.066;2023-04-19T00:51:10;29.13;;;16.53;;
60354;SDS011;46198;51.464;-0.066;2023-04-19T00:53:39;34.10;;;16.60;;
60354;SDS011;46198;51.464;-0.066;2023-04-19T00:56:08;32.67;;;17.07;;
60354;SDS011;46198;51.464;-0.066;2023-04-19T00:58:38;37.27;;;16.83;;
60354;SDS011;46198;51.464;-0.066;2023-04-19T01:01:08;33.90;;;15.23;;
60354;SDS011;46198;51.464;-0.066;2023-04-19T01:03:36;33.83;;;16.33;;
60354;SDS011;46198;51.464;-0.066;2023-04-19T01:06:04;30.73;;;15.80;;
60354;SDS011;46198;51.464;-0.066;2023-04-19T01:08:33;32.87;;;16.67;;
60354;SDS011;46198;51.464;-0.066;2023-04-19T01:11:01;35.13;;;18.03;;
60354;SDS011;46198;51.464;-0.066;2023-04-19T01:13:29;29.27;;;15.57;;
60354;SDS011;46198;51.464;-0.066;2023-04-19T01:15:58;33.43;;;16.20;;
60354;SDS011;46198;51.464;-0.066;2023-04-19T01:18:27;38.10;;;16.60;;
60354;SDS011;46198;51.464;-0.066;2023-04-19T01:21:01;32.07;;;16.10;;
60354;SDS011;46198;51.464;-0.066;2023-04-19T01:23:31;38.87;;;19.33;;
60354;SDS011;46198;51.464;-0.066;2023-04-19T01:26:00;31.47;;;18.13;;
60354;SDS011;46198;51.464;-0.066;2023-04-19T01:28:28;28.70;;;16.33;;
60354;SDS011;46198;51.464;-0.066;2023-04-19T01:30:56;34.73;;;16.80;;
60354;SDS011;46198;51.464;-0.066;2023-04-19T01:33:25;39.07;;;16.67;;
60354;SDS011;46198;51.464;-0.066;2023-04-19T01:35:53;35.80;;;17.73;;
60354;SDS011;46198;51.464;-0.066;2023-04-19T01:41:41;36.37;;;16.70;;
60354;SDS011;46198;51.464;-0.066;2023-04-19T01:44:09;39.20;;;19.17;;
60354;SDS011;46198;51.464;-0.066;2023-04-19T01:46:37;41.07;;;18.70;;
60354;SDS011;46198;51.464;-0.066;2023-04-19T01:49:08;32.55;;;17.70;;
60354;SDS011;46198;51.464;-0.066;2023-04-19T01:51:36;41.47;;;18.53;;
60354;SDS011;46198;51.464;-0.066;2023-04-19T01:54:05;35.13;;;18.73;;
60354;SDS011;46198;51.464;-0.066;2023-04-19T01:56:33;32.40;;;17.97;;
60354;SDS011;46198;51.464;-0.066;2023-04-19T01:59:02;35.37;;;17.13;;
60354;SDS011;46198;51.464;-0.066;2023-04-19T02:01:30;31.03;;;17.50;;
60354;SDS011;46198;51.464;-0.066;2023-04-19T02:03:58;36.43;;;17.43;;
60354;SDS011;46198;51.464;-0.066;2023-04-19T02:06:30;33.43;;;17.50;;
60354;SDS011;46198;51.464;-0.066;2023-04-19T02:08:58;41.63;;;17.80;;
60354;SDS011;46198;51.464;-0.066;2023-04-19T02:11:26;35.03;;;18.17;;
60354;SDS011;46198;51.464;-0.066;2023-04-19T02:13:54;32.93;;;17.20;;
60354;SDS011;46198;51.464;-0.066;2023-04-19T02:16:24;39.03;;;18.80;;
60354;SDS011;46198;51.464;-0.066;2023-04-19T02:18:52;36.60;;;17.87;;
60354;SDS011;46198;51.464;-0.066;2023-04-19T02:21:20;39.37;;;19.10;;
60354;SDS011;46198;51.464;-0.066;2023-04-19T02:23:48;40.30;;;20.07;;
60354;SDS011;46198;51.464;-0.066;2023-04-19T02:29:10;40.60;;;19.70;;
60354;SDS011;46198;51.464;-0.066;2023-04-19T02:31:40;38.20;;;18.93;;
60354;SDS011;46198;51.464;-0.066;2023-04-19T02:34:08;45.70;;;21.27;;
60354;SDS011;46198;51.464;-0.066;2023-04-19T02:36:36;39.10;;;19.77;;
60354;SDS011;46198;51.464;-0.066;2023-04-19T02:39:04;36.53;;;19.50;;
60354;SDS011;46198;51.464;-0.066;2023-04-19T02:41:32;44.37;;;21.77;;
60354;SDS011;46198;51.464;-0.066;2023-04-19T02:44:00;42.40;;;21.23;;
60354;SDS011;46198;51.464;-0.066;2023-04-19T02:46:28;41.73;;;20.97;;
60354;SDS011;46198;51.464;-0.066;2023-04-19T02:48:59;33.87;;;19.60;;
60354;SDS011;46198;51.464;-0.066;2023-04-19T02:54:20;36.17;;;20.27;;
60354;SDS011;46198;51.464;-0.066;2023-04-19T02:56:49;36.70;;;20.53;;
60354;SDS011;46198;51.464;-0.066;2023-04-19T02:59:17;36.73;;;20.93;;
60354;SDS011;46198;51.464;-0.066;2023-04-19T03:01:45;37.80;;;20.37;;
60354;SDS011;46198;51.464;-0.066;2023-04-19T03:04:15;47.80;;;23.70;;
60354;SDS011;46198;51.464;-0.066;2023-04-19T03:06:44;49.97;;;22.50;;
60354;SDS011;46198;51.464;-0.066;2023-04-19T03:09:12;40.27;;;22.67;;
60354;SDS011;46198;51.464;-0.066;2023-04-19T03:11:40;38.23;;;21.57;;
60354;SDS011;46198;51.464;-0.066;2023-04-19T03:14:08;50.00;;;22.87;;
60354;SDS011;46198;51.464;-0.066;2023-04-19T03:16:37;46.53;;;23.03;;
60354;SDS011;46198;51.464;-0.066;2023-04-19T03:19:05;40.20;;;22.57;;
60354;SDS011;46198;51.464;-0.066;2023-04-19T03:21:40;48.17;;;24.43;;
60354;SDS011;46198;51.464;-0.066;2023-04-19T03:24:08;44.00;;;23.80;;
60354;SDS011;46198;51.464;-0.066;2023-04-19T03:26:39;38.07;;;23.03;;
60354;SDS011;46198;51.464;-0.066;2023-04-19T03:29:08;47.73;;;24.57;;
60354;SDS011;46198;51.464;-0.066;2023-04-19T03:31:44;46.17;;;22.93;;
60354;SDS011;46198;51.464;-0.066;2023-04-19T03:34:14;48.33;;;24.30;;
60354;SDS011;46198;51.464;-0.066;2023-04-19T03:36:46;43.58;;;23.80;;
60354;SDS011;46198;51.464;-0.066;2023-04-19T03:39:14;47.50;;;25.50;;
60354;SDS011;46198;51.464;-0.066;2023-04-19T03:41:46;45.73;;;24.17;;
60354;SDS011;46198;51.464;-0.066;2023-04-19T03:44:30;45.03;;;23.80;;
60354;SDS011;46198;51.464;-0.066;2023-04-19T03:47:01;41.80;;;23.87;;
60354;SDS011;46198;51.464;-0.066;2023-04-19T03:49:33;50.70;;;24.20;;
60354;SDS011;46198;51.464;-0.066;2023-04-19T03:52:04;43.33;;;23.55;;
60354;SDS011;46198;51.464;-0.066;2023-04-19T03:54:33;41.60;;;23.33;;
60354;SDS011;46198;51.464;-0.066;2023-04-19T03:57:03;40.63;;;23.43;;
60354;SDS011;46198;51.464;-0.066;2023-04-19T03:59:33;49.17;;;23.55;;
60354;SDS011;46198;51.464;-0.066;2023-04-19T04:02:02;45.17;;;23.83;;
60354;SDS011;46198;51.464;-0.066;2023-04-19T04:04:31;43.53;;;24.80;;
60354;SDS011;46198;51.464;-0.066;2023-04-19T04:07:00;49.33;;;23.20;;
60354;SDS011;46198;51.464;-0.066;2023-04-19T04:09:29;46.20;;;25.30;;
60354;SDS011;46198;51.464;-0.066;2023-04-19T04:11:58;51.37;;;25.20;;
60354;SDS011;46198;51.464;-0.066;2023-04-19T04:14:26;45.73;;;23.70;;
60354;SDS011;46198;51.464;-0.066;2023-04-19T04:16:54;45.17;;;24.37;;
60354;SDS011;46198;51.464;-0.066;2023-04-19T04:19:22;46.97;;;25.37;;
60354;SDS011;46198;51.464;-0.066;2023-04-19T04:21:51;46.67;;;25.53;;
60354;SDS011;46198;51.464;-0.066;2023-04-19T04:24:19;48.60;;;23.33;;
60354;SDS011;46198;51.464;-0.066;2023-04-19T04:27:05;45.07;;;24.03;;
60354;SDS011;46198;51.464;-0.066;2023-04-19T04:29:38;49.97;;;25.77;;
60354;SDS011;46198;51.464;-0.066;2023-04-19T04:32:07;42.50;;;24.53;;
60354;SDS011;46198;51.464;-0.066;2023-04-19T04:34:39;44.13;;;25.57;;
60354;SDS011;46198;51.464;-0.066;2023-04-19T04:37:12;44.37;;;24.83;;
60354;SDS011;46198;51.464;-0.066;2023-04-19T04:39:41;47.30;;;24.57;;
60354;SDS011;46198;51.464;-0.066;2023-04-19T04:42:11;43.17;;;24.13;;
60354;SDS011;46198;51.464;-0.066;2023-04-19T04:44:40;44.13;;;23.13;;
60354;SDS011;46198;51.464;-0.066;2023-04-19T04:47:11;50.03;;;24.47;;
60354;SDS011;46198;51.464;-0.066;2023-04-19T04:49:45;46.43;;;23.30;;
60354;SDS011;46198;51.464;-0.066;2023-04-19T04:52:13;45.57;;;24.43;;
60354;SDS011;46198;51.464;-0.066;2023-04-19T04:54:55;42.57;;;23.50;;
60354;SDS011;46198;51.464;-0.066;2023-04-19T04:57:30;45.77;;;25.90;;
60354;SDS011;46198;51.464;-0.066;2023-04-19T04:59:59;48.50;;;23.77;;
60354;SDS011;46198;51.464;-0.066;2023-04-19T05:02:33;49.57;;;25.07;;
60354;SDS011;46198;51.464;-0.066;2023-04-19T05:05:02;43.17;;;22.93;;
60354;SDS011;46198;51.464;-0.066;2023-04-19T05:07:31;43.10;;;23.50;;
60354;SDS011;46198;51.464;-0.066;2023-04-19T05:10:01;43.60;;;24.93;;
60354;SDS011;46198;51.464;-0.066;2023-04-19T05:12:39;45.03;;;24.23;;
60354;SDS011;46198;51.464;-0.066;2023-04-19T05:15:08;45.88;;;25.48;;
60354;SDS011;46198;51.464;-0.066;2023-04-19T05:17:41;45.63;;;24.93;;
60354;SDS011;46198;51.464;-0.066;2023-04-19T05:20:10;47.60;;;25.33;;
60354;SDS011;46198;51.464;-0.066;2023-04-19T05:22:40;41.33;;;24.47;;
60354;SDS011;46198;51.464;-0.066;2023-04-19T05:25:09;47.10;;;26.13;;
60354;SDS011;46198;51.464;-0.066;2023-04-19T05:27:39;41.80;;;23.77;;
60354;SDS011;46198;51.464;-0.066;2023-04-19T05:30:08;37.95;;;21.98;;
60354;SDS011;46198;51.464;-0.066;2023-04-19T05:32:41;45.57;;;22.90;;
60354;SDS011;46198;51.464;-0.066;2023-04-19T05:35:11;47.90;;;23.10;;
60354;SDS011;46198;51.464;-0.066;2023-04-19T05:37:40;38.73;;;22.93;;
60354;SDS011;46198;51.464;-0.066;2023-04-19T05:43:03;45.50;;;24.33;;
60354;SDS011;46198;51.464;-0.066;2023-04-19T05:45:31;48.27;;;22.80;;
60354;SDS011;46198;51.464;-0.066;2023-04-19T05:47:59;41.87;;;23.00;;
60354;SDS011;46198;51.464;-0.066;2023-04-19T05:51:03;39.80;;;21.30;;
60354;SDS011;46198;51.464;-0.066;2023-04-19T05:53:56;39.30;;;21.30;;
60354;SDS011;46198;51.464;-0.066;2023-04-19T05:56:24;44.57;;;22.80;;
60354;SDS011;46198;51.464;-0.066;2023-04-19T05:58:53;40.63;;;21.93;;
60354;SDS011;46198;51.464;-0.066;2023-04-19T06:01:22;39.77;;;22.43;;
60354;SDS011;46198;51.464;-0.066;2023-04-19T06:03:50;36.50;;;21.80;;
60354;SDS011;46198;51.464;-0.066;2023-04-19T06:06:20;43.77;;;22.37;;
60354;SDS011;46198;51.464;-0.066;2023-04-19T06:08:49;46.07;;;21.83;;
60354;SDS011;46198;51.464;-0.066;2023-04-19T06:11:20;37.08;;;21.02;;
60354;SDS011;46198;51.464;-0.066;2023-04-19T06:13:58;40.80;;;20.70;;
60354;SDS011;46198;51.464;-0.066;2023-04-19T06:16:26;41.27;;;22.47;;
60354;SDS011;46198;51.464;-0.066;2023-04-19T06:18:54;39.27;;;20.47;;
60354;SDS011;46198;51.464;-0.066;2023-04-19T06:21:22;38.57;;;20.67;;
60354;SDS011;46198;51.464;-0.066;2023-04-19T06:23:50;39.63;;;21.33;;
60354;SDS011;46198;51.464;-0.066;2023-04-19T06:26:18;39.30;;;22.60;;
60354;SDS011;46198;51.464;-0.066;2023-04-19T06:28:47;42.80;;;21.93;;
60354;SDS011;46198;51.464;-0.066;2023-04-19T06:31:16;41.53;;;21.20;;
60354;SDS011;46198;51.464;-0.066;2023-04-19T06:33:44;36.37;;;20.70;;
60354;SDS011;46198;51.464;-0.066;2023-04-19T06:36:12;39.97;;;20.60;;
60354;SDS011;46198;51.464;-0.066;2023-04-19T06:38:40;39.50;;;22.00;;
60354;SDS011;46198;51.464;-0.066;2023-04-19T06:41:10;39.00;;;21.17;;
60354;SDS011;46198;51.464;-0.066;2023-04-19T06:43:38;44.47;;;22.07;;
60354;SDS011;46198;51.464;-0.066;2023-04-19T06:46:08;43.40;;;21.50;;
60354;SDS011;46198;51.464;-0.066;2023-04-19T06:48:38;36.33;;;21.27;;
60354;SDS011;46198;51.464;-0.066;2023-04-19T06:51:06;36.63;;;20.93;;
60354;SDS011;46198;51.464;-0.066;2023-04-19T06:53:34;35.10;;;19.47;;
60354;SDS011;46198;51.464;-0.066;2023-04-19T07:00:10;35.07;;;21.20;;
60354;SDS011;46198;51.464;-0.066;2023-04-19T07:02:39;38.00;;;20.90;;
60354;SDS011;46198;51.464;-0.066;2023-04-19T07:05:09;34.90;;;19.77;;
60354;SDS011;46198;51.464;-0.066;2023-04-19T07:07:38;37.75;;;20.50;;
60354;SDS011;46198;51.464;-0.066;2023-04-19T07:10:07;38.20;;;20.83;;
60354;SDS011;46198;51.464;-0.066;2023-04-19T07:12:36;37.13;;;19.10;;
60354;SDS011;46198;51.464;-0.066;2023-04-19T07:15:04;35.37;;;20.33;;
60354;SDS011;46198;51.464;-0.066;2023-04-19T07:17:33;30.23;;;18.27;;
60354;SDS011;46198;51.464;-0.066;2023-04-19T07:20:03;40.67;;;19.95;;
60354;SDS011;46198;51.464;-0.066;2023-04-19T07:22:34;34.47;;;18.70;;
60354;SDS011;46198;51.464;-0.066;2023-04-19T07:25:02;32.27;;;18.83;;
60354;SDS011;46198;51.464;-0.066;2023-04-19T07:27:31;36.47;;;19.40;;
60354;SDS011;46198;51.464;-0.066;2023-04-19T07:29:59;31.40;;;19.13;;
60354;SDS011;46198;51.464;-0.066;2023-04-19T07:32:29;33.90;;;20.10;;
60354;SDS011;46198;51.464;-0.066;2023-04-19T07:34:58;33.47;;;18.53;;
60354;SDS011;46198;51.464;-0.066;2023-04-19T07:37:26;35.77;;;18.53;;
60354;SDS011;46198;51.464;-0.066;2023-04-19T07:39:55;31.83;;;18.50;;
60354;SDS011;46198;51.464;-0.066;2023-04-19T07:42:23;35.73;;;19.20;;
60354;SDS011;46198;51.464;-0.066;2023-04-19T07:44:51;34.67;;;20.33;;
60354;SDS011;46198;51.464;-0.066;2023-04-19T07:47:19;37.10;;;21.00;;
60354;SDS011;46198;51.464;-0.066;2023-04-19T07:49:50;37.03;;;20.43;;
60354;SDS011;46198;51.464;-0.066;2023-04-19T07:52:19;39.75;;;20.33;;
60354;SDS011;46198;51.464;-0.066;2023-04-19T07:54:46;39.33;;;20.10;;
60354;SDS011;46198;51.464;-0.066;2023-04-19T07:57:16;34.80;;;20.67;;
60354;SDS011;46198;51.464;-0.066;2023-04-19T07:59:44;37.80;;;21.15;;
60354;SDS011;46198;51.464;-0.066;2023-04-19T08:02:12;35.10;;;20.98;;
60354;SDS011;46198;51.464;-0.066;2023-04-19T08:04:42;37.53;;;20.02;;
60354;SDS011;46198;51.464;-0.066;2023-04-19T08:07:14;38.65;;;21.70;;
60354;SDS011;46198;51.464;-0.066;2023-04-19T08:09:42;35.17;;;20.77;;
60354;SDS011;46198;51.464;-0.066;2023-04-19T08:12:10;33.65;;;20.40;;
60354;SDS011;46198;51.464;-0.066;2023-04-19T08:14:57;36.10;;;19.60;;
60354;SDS011;46198;51.464;-0.066;2023-04-19T08:17:45;36.15;;;19.88;;
60354;SDS011;46198;51.464;-0.066;2023-04-19T08:20:13;36.28;;;20.23;;
60354;SDS011;46198;51.464;-0.066;2023-04-19T08:22:41;34.55;;;20.42;;
60354;SDS011;46198;51.464;-0.066;2023-04-19T08:25:09;37.70;;;21.10;;
60354;SDS011;46198;51.464;-0.066;2023-04-19T08:27:37;34.03;;;18.92;;
60354;SDS011;46198;51.464;-0.066;2023-04-19T08:30:07;35.10;;;21.33;;
60354;SDS011;46198;51.464;-0.066;2023-04-19T08:32:36;32.47;;;19.85;;
60354;SDS011;46198;51.464;-0.066;2023-04-19T08:35:05;33.65;;;19.90;;
60354;SDS011;46198;51.464;-0.066;2023-04-19T08:37:33;33.75;;;19.30;;
60354;SDS011;46198;51.464;-0.066;2023-04-19T08:40:02;31.80;;;19.25;;
60354;SDS011;46198;51.464;-0.066;2023-04-19T08:42:33;35.10;;;19.85;;
60354;SDS011;46198;51.464;-0.066;2023-04-19T08:45:03;33.85;;;19.20;;
60354;SDS011;46198;51.464;-0.066;2023-04-19T08:47:38;33.10;;;19.00;;
60354;SDS011;46198;51.464;-0.066;2023-04-19T08:50:22;34.25;;;18.15;;
60354;SDS011;46198;51.464;-0.066;2023-04-19T08:53:01;33.38;;;19.33;;
60354;SDS011;46198;51.464;-0.066;2023-04-19T08:55:32;32.42;;;18.38;;
60354;SDS011;46198;51.464;-0.066;2023-04-19T08:58:01;32.78;;;18.58;;
60354;SDS011;46198;51.464;-0.066;2023-04-19T09:00:44;32.05;;;19.23;;
60354;SDS011;46198;51.464;-0.066;2023-04-19T09:03:14;31.17;;;17.95;;
60354;SDS011;46198;51.464;-0.066;2023-04-19T09:05:42;30.80;;;18.30;;
60354;SDS011;46198;51.464;-0.066;2023-04-19T09:08:19;30.40;;;18.45;;
60354;SDS011;46198;51.464;-0.066;2023-04-19T09:10:51;30.45;;;18.25;;
60354;SDS011;46198;51.464;-0.066;2023-04-19T09:13:20;34.97;;;19.17;;
60354;SDS011;46198;51.464;-0.066;2023-04-19T09:15:48;26.23;;;15.77;;
60354;SDS011;46198;51.464;-0.066;2023-04-19T09:18:18;31.75;;;18.85;;
60354;SDS011;46198;51.464;-0.066;2023-04-19T09:20:46;35.55;;;18.42;;
60354;SDS011;46198;51.464;-0.066;2023-04-19T09:23:16;32.42;;;17.92;;
60354;SDS011;46198;51.464;-0.066;2023-04-19T09:25:50;29.33;;;17.10;;
60354;SDS011;46198;51.464;-0.066;2023-04-19T09:28:40;31.95;;;17.17;;
60354;SDS011;46198;51.464;-0.066;2023-04-19T09:31:22;30.73;;;17.20;;
60354;SDS011;46198;51.464;-0.066;2023-04-19T09:34:13;32.38;;;17.45;;
60354;SDS011;46198;51.464;-0.066;2023-04-19T09:36:43;31.92;;;17.35;;
60354;SDS011;46198;51.464;-0.066;2023-04-19T09:39:12;28.85;;;17.27;;
60354;SDS011;46198;51.464;-0.066;2023-04-19T09:41:51;30.33;;;16.55;;
60354;SDS011;46198;51.464;-0.066;2023-04-19T09:44:19;32.67;;;16.75;;
60354;SDS011;46198;51.464;-0.066;2023-04-19T09:46:50;27.42;;;15.85;;
60354;SDS011;46198;51.464;-0.066;2023-04-19T09:49:21;28.35;;;16.92;;
60354;SDS011;46198;51.464;-0.066;2023-04-19T09:52:07;29.10;;;15.77;;
60354;SDS011;46198;51.464;-0.066;2023-04-19T09:54:40;24.75;;;15.15;;
60354;SDS011;46198;51.464;-0.066;2023-04-19T09:57:08;28.85;;;16.25;;
60354;SDS011;46198;51.464;-0.066;2023-04-19T09:59:37;26.33;;;14.77;;
60354;SDS011;46198;51.464;-0.066;2023-04-19T10:02:05;27.60;;;15.40;;
60354;SDS011;46198;51.464;-0.066;2023-04-19T10:04:39;24.27;;;14.75;;
60354;SDS011;46198;51.464;-0.066;2023-04-19T10:07:29;28.05;;;15.75;;
60354;SDS011;46198;51.464;-0.066;2023-04-19T10:09:58;26.80;;;15.00;;
60354;SDS011;46198;51.464;-0.066;2023-04-19T10:12:46;25.38;;;15.55;;
60354;SDS011;46198;51.464;-0.066;2023-04-19T10:15:37;25.02;;;14.75;;
60354;SDS011;46198;51.464;-0.066;2023-04-19T10:18:21;27.45;;;14.35;;
60354;SDS011;46198;51.464;-0.066;2023-04-19T10:20:52;23.75;;;15.27;;
60354;SDS011;46198;51.464;-0.066;2023-04-19T10:23:25;25.52;;;15.18;;
60354;SDS011;46198;51.464;-0.066;2023-04-19T10:25:55;26.27;;;15.00;;
60354;SDS011;46198;51.464;-0.066;2023-04-19T10:28:24;23.02;;;13.25;;
60354;SDS011;46198;51.464;-0.066;2023-04-19T10:33:27;24.60;;;14.50;;
60354;SDS011;46198;51.464;-0.066;2023-04-19T10:35:58;29.98;;;14.73;;
60354;SDS011;46198;51.464;-0.066;2023-04-19T10:41:02;26.15;;;14.15;;
60354;SDS011;46198;51.464;-0.066;2023-04-19T10:43:41;32.05;;;15.85;;
60354;SDS011;46198;51.464;-0.066;2023-04-19T10:46:15;25.08;;;14.45;;
60354;SDS011;46198;51.464;-0.066;2023-04-19T10:49:02;22.67;;;13.85;;
60354;SDS011;46198;51.464;-0.066;2023-04-19T10:51:33;24.08;;;13.68;;
60354;SDS011;46198;51.464;-0.066;2023-04-19T10:54:02;20.17;;;13.27;;
60354;SDS011;46198;51.464;-0.066;2023-04-19T10:59:28;25.80;;;12.88;;
60354;SDS011;46198;51.464;-0.066;2023-04-19T11:01:58;27.00;;;13.38;;
60354;SDS011;46198;51.464;-0.066;2023-04-19T11:07:27;18.77;;;12.60;;
60354;SDS011;46198;51.464;-0.066;2023-04-19T11:09:56;22.93;;;12.93;;
60354;SDS011;46198;51.464;-0.066;2023-04-19T11:12:24;24.13;;;12.60;;
60354;SDS011;46198;51.464;-0.066;2023-04-19T11:14:52;26.20;;;13.15;;
60354;SDS011;46198;51.464;-0.066;2023-04-19T11:17:23;20.35;;;12.30;;
60354;SDS011;46198;51.464;-0.066;2023-04-19T11:19:54;21.50;;;12.35;;
60354;SDS011;46198;51.464;-0.066;2023-04-19T11:22:24;17.83;;;12.27;;
60354;SDS011;46198;51.464;-0.066;2023-04-19T11:24:54;20.17;;;11.43;;
60354;SDS011;46198;51.464;-0.066;2023-04-19T11:27:22;19.80;;;10.25;;
60354;SDS011;46198;51.464;-0.066;2023-04-19T11:29:51;23.05;;;11.77;;
60354;SDS011;46198;51.464;-0.066;2023-04-19T11:32:19;21.85;;;11.30;;
60354;SDS011;46198;51.464;-0.066;2023-04-19T11:34:48;16.42;;;10.65;;
60354;SDS011;46198;51.464;-0.066;2023-04-19T11:37:17;18.52;;;10.88;;
60354;SDS011;46198;51.464;-0.066;2023-04-19T11:39:45;15.75;;;10.93;;
60354;SDS011;46198;51.464;-0.066;2023-04-19T11:42:18;19.27;;;11.68;;
60354;SDS011;46198;51.464;-0.066;2023-04-19T11:44:47;18.08;;;11.02;;
60354;SDS011;46198;51.464;-0.066;2023-04-19T11:47:17;17.00;;;10.37;;
60354;SDS011;46198;51.464;-0.066;2023-04-19T11:49:45;18.17;;;11.52;;
60354;SDS011;46198;51.464;-0.066;2023-04-19T11:52:18;21.17;;;10.82;;
60354;SDS011;46198;51.464;-0.066;2023-04-19T11:54:49;15.20;;;9.68;;
60354;SDS011;46198;51.464;-0.066;2023-04-19T11:57:27;14.80;;;9.35;;
60354;SDS011;46198;51.464;-0.066;2023-04-19T12:00:03;15.90;;;9.50;;
60354;SDS011;46198;51.464;-0.066;2023-04-19T12:02:38;17.70;;;9.93;;
60354;SDS011;46198;51.464;-0.066;2023-04-19T12:05:07;19.35;;;11.77;;
60354;SDS011;46198;51.464;-0.066;2023-04-19T12:07:37;22.08;;;11.20;;
60354;SDS011;46198;51.464;-0.066;2023-04-19T12:10:24;15.02;;;9.35;;
60354;SDS011;46198;51.464;-0.066;2023-04-19T12:12:54;17.42;;;9.90;;
60354;SDS011;46198;51.464;-0.066;2023-04-19T12:15:22;20.70;;;9.77;;
60354;SDS011;46198;51.464;-0.066;2023-04-19T12:18:00;14.77;;;10.38;;
60354;SDS011;46198;51.464;-0.066;2023-04-19T12:20:30;15.70;;;9.55;;
60354;SDS011;46198;51.464;-0.066;2023-04-19T12:22:59;17.67;;;9.40;;
60354;SDS011;46198;51.464;-0.066;2023-04-19T12:25:28;13.32;;;8.52;;
60354;SDS011;46198;51.464;-0.066;2023-04-19T12:27:58;12.00;;;7.97;;
60354;SDS011;46198;51.464;-0.066;2023-04-19T12:30:27;12.77;;;8.45;;
60354;SDS011;46198;51.464;-0.066;2023-04-19T12:32:56;12.10;;;7.57;;
60354;SDS011;46198;51.464;-0.066;2023-04-19T12:35:25;16.52;;;7.85;;
60354;SDS011;46198;51.464;-0.066;2023-04-19T12:37:54;14.52;;;7.40;;
60354;SDS011;46198;51.464;-0.066;2023-04-19T12:40:24;11.02;;;7.28;;
60354;SDS011;46198;51.464;-0.066;2023-04-19T12:42:52;11.68;;;7.05;;
60354;SDS011;46198;51.464;-0.066;2023-04-19T12:45:22;10.23;;;6.68;;
60354;SDS011;46198;51.464;-0.066;2023-04-19T12:47:50;13.05;;;7.38;;
60354;SDS011;46198;51.464;-0.066;2023-04-19T12:50:18;11.85;;;6.32;;
60354;SDS011;46198;51.464;-0.066;2023-04-19T12:52:46;8.90;;;6.20;;
60354;SDS011;46198;51.464;-0.066;2023-04-19T12:55:14;10.45;;;5.55;;
60354;SDS011;46198;51.464;-0.066;2023-04-19T12:57:43;8.80;;;5.63;;
60354;SDS011;46198;51.464;-0.066;2023-04-19T13:00:11;10.98;;;6.38;;
60354;SDS011;46198;51.464;-0.066;2023-04-19T13:02:41;11.93;;;5.57;;
60354;SDS011;46198;51.464;-0.066;2023-04-19T13:05:09;39.47;;;8.57;;
60354;SDS011;46198;51.464;-0.066;2023-04-19T13:07:38;10.80;;;5.97;;
60354;SDS011;46198;51.464;-0.066;2023-04-19T13:10:07;13.00;;;6.10;;
60354;SDS011;46198;51.464;-0.066;2023-04-19T13:12:35;12.23;;;5.90;;
60354;SDS011;46198;51.464;-0.066;2023-04-19T13:15:04;9.02;;;6.65;;
60354;SDS011;46198;51.464;-0.066;2023-04-19T13:17:34;13.93;;;6.90;;
60354;SDS011;46198;51.464;-0.066;2023-04-19T13:20:04;10.23;;;5.80;;
60354;SDS011;46198;51.464;-0.066;2023-04-19T13:22:34;16.75;;;7.70;;
60354;SDS011;46198;51.464;-0.066;2023-04-19T13:25:02;11.43;;;7.15;;
60354;SDS011;46198;51.464;-0.066;2023-04-19T13:27:30;13.68;;;6.97;;
60354;SDS011;46198;51.464;-0.066;2023-04-19T13:29:58;11.93;;;6.45;;
60354;SDS011;46198;51.464;-0.066;2023-04-19T13:32:26;12.07;;;7.07;;
60354;SDS011;46198;51.464;-0.066;2023-04-19T13:34:55;10.07;;;6.10;;
60354;SDS011;46198;51.464;-0.066;2023-04-19T13:37:24;11.63;;;6.22;;
60354;SDS011;46198;51.464;-0.066;2023-04-19T13:39:52;11.98;;;6.13;;
60354;SDS011;46198;51.464;-0.066;2023-04-19T13:42:36;10.20;;;5.65;;
60354;SDS011;46198;51.464;-0.066;2023-04-19T13:45:04;11.70;;;6.00;;
60354;SDS011;46198;51.464;-0.066;2023-04-19T13:47:33;13.98;;;6.03;;
60354;SDS011;46198;51.464;-0.066;2023-04-19T13:50:01;12.50;;;6.97;;
60354;SDS011;46198;51.464;-0.066;2023-04-19T13:52:31;10.20;;;6.50;;
60354;SDS011;46198;51.464;-0.066;2023-04-19T13:54:59;12.95;;;6.93;;
60354;SDS011;46198;51.464;-0.066;2023-04-19T13:57:27;13.52;;;7.13;;
60354;SDS011;46198;51.464;-0.066;2023-04-19T13:59:55;11.05;;;7.35;;
60354;SDS011;46198;51.464;-0.066;2023-04-19T14:02:23;16.83;;;7.57;;
60354;SDS011;46198;51.464;-0.066;2023-04-19T14:04:52;12.60;;;6.70;;
60354;SDS011;46198;51.464;-0.066;2023-04-19T14:07:20;14.13;;;7.65;;
60354;SDS011;46198;51.464;-0.066;2023-04-19T14:09:49;15.93;;;6.70;;
60354;SDS011;46198;51.464;-0.066;2023-04-19T14:12:17;12.82;;;6.97;;
60354;SDS011;46198;51.464;-0.066;2023-04-19T14:14:45;13.93;;;7.25;;
60354;SDS011;46198;51.464;-0.066;2023-04-19T14:17:13;12.88;;;7.28;;
60354;SDS011;46198;51.464;-0.066;2023-04-19T14:19:41;10.93;;;6.93;;
60354;SDS011;46198;51.464;-0.066;2023-04-19T14:22:09;12.13;;;7.68;;
60354;SDS011;46198;51.464;-0.066;2023-04-19T14:24:37;14.88;;;7.45;;
60354;SDS011;46198;51.464;-0.066;2023-04-19T14:27:07;12.90;;;7.15;;
60354;SDS011;46198;51.464;-0.066;2023-04-19T14:29:37;15.73;;;8.23;;
60354;SDS011;46198;51.464;-0.066;2023-04-19T14:32:05;16.92;;;8.82;;
60354;SDS011;46198;51.464;-0.066;2023-04-19T14:34:50;18.65;;;7.80;;
60354;SDS011;46198;51.464;-0.066;2023-04-19T14:37:19;14.40;;;7.20;;
60354;SDS011;46198;51.464;-0.066;2023-04-19T14:39:48;13.10;;;7.45;;
60354;SDS011;46198;51.464;-0.066;2023-04-19T14:42:18;17.55;;;7.90;;
60354;SDS011;46198;51.464;-0.066;2023-04-19T14:44:49;17.55;;;7.75;;
60354;SDS011;46198;51.464;-0.066;2023-04-19T14:47:18;15.93;;;7.70;;
60354;SDS011;46198;51.464;-0.066;2023-04-19T14:49:46;15.38;;;8.27;;
60354;SDS011;46198;51.464;-0.066;2023-04-19T14:52:14;19.27;;;8.00;;
60354;SDS011;46198;51.464;-0.066;2023-04-19T14:54:42;12.82;;;7.75;;
60354;SDS011;46198;51.464;-0.066;2023-04-19T14:57:10;14.45;;;7.80;;